createdAt,value
2018-11-28T00:00:57.076Z,39.87
2018-11-28T00:03:26.452Z,42.67
2018-11-28T00:05:55.858Z,44.07
2018-11-28T00:08:25.208Z,41.57
2018-11-28T00:10:54.501Z,38.60
2018-11-28T00:13:23.931Z,42.27
2018-11-28T00:15:53.241Z,44.63
2018-11-28T00:18:22.563Z,41.60
2018-11-28T00:20:51.895Z,37.70
2018-11-28T00:23:21.168Z,40.33
2018-11-28T00:25:50.521Z,42.00
2018-11-28T00:28:19.872Z,37.17
2018-11-28T00:30:51.393Z,43.80
2018-11-28T00:33:20.727Z,39.43
2018-11-28T00:35:50.033Z,40.77
2018-11-28T00:38:19.422Z,42.60
2018-11-28T00:40:48.815Z,39.03
2018-11-28T00:43:18.162Z,40.97
2018-11-28T00:45:47.556Z,40.60
2018-11-28T00:48:16.873Z,41.33
2018-11-28T00:50:46.221Z,39.33
2018-11-28T00:53:15.576Z,42.10
2018-11-28T00:55:48.452Z,39.83
2018-11-28T00:58:14.244Z,36.67
2018-11-28T01:00:43.515Z,38.30
2018-11-28T01:03:13.019Z,40.47
2018-11-28T01:05:43.401Z,40.83
2018-11-28T01:08:12.885Z,44.83
2018-11-28T01:10:42.260Z,42.87
2018-11-28T01:13:11.598Z,41.80
2018-11-28T01:15:41.006Z,38.83
2018-11-28T01:18:10.386Z,40.50
2018-11-28T01:20:39.813Z,41.30
2018-11-28T01:23:09.263Z,43.83
2018-11-28T01:25:38.555Z,44.23
2018-11-28T01:28:07.875Z,39.27
2018-11-28T01:30:37.227Z,40.60
2018-11-28T01:33:06.804Z,39.47
2018-11-28T01:35:36.092Z,39.93
2018-11-28T01:38:05.532Z,38.20
2018-11-28T01:40:34.822Z,35.73
2018-11-28T01:43:04.390Z,40.57
2018-11-28T01:45:33.750Z,38.37
2018-11-28T01:48:03.328Z,37.40
2018-11-28T01:50:32.726Z,40.20
2018-11-28T01:53:02.122Z,42.20
2018-11-28T01:55:31.571Z,37.97
2018-11-28T01:58:01.246Z,40.13
2018-11-28T02:00:30.520Z,40.77
2018-11-28T02:03:01.674Z,39.97
2018-11-28T02:05:31.108Z,40.80
2018-11-28T02:08:00.729Z,40.63
2018-11-28T02:10:30.087Z,41.17
2018-11-28T02:12:59.354Z,41.50
2018-11-28T02:15:28.916Z,40.67
2018-11-28T02:17:58.715Z,41.33
2018-11-28T02:20:28.274Z,39.43
2018-11-28T02:22:57.649Z,41.00
2018-11-28T02:25:27.047Z,38.20
2018-11-28T02:27:56.397Z,41.03
2018-11-28T02:30:25.786Z,37.93
2018-11-28T02:32:55.766Z,41.47
2018-11-28T02:35:25.065Z,40.70
2018-11-28T02:37:54.414Z,40.43
2018-11-28T02:40:23.872Z,40.13
2018-11-28T02:42:53.183Z,40.23
2018-11-28T02:45:23.358Z,39.00
2018-11-28T02:47:53.327Z,39.00
2018-11-28T02:50:22.672Z,37.93
2018-11-28T02:52:54.084Z,38.97
2018-11-28T02:55:23.429Z,38.97
2018-11-28T02:57:52.784Z,39.70
2018-11-28T03:00:26.455Z,38.33
2018-11-28T03:02:55.747Z,37.77
2018-11-28T03:05:25.092Z,38.00
2018-11-28T03:07:54.442Z,38.03
2018-11-28T03:10:24.332Z,38.03
2018-11-28T03:12:53.686Z,37.70
2018-11-28T03:15:28.517Z,39.43
2018-11-28T03:17:57.853Z,39.73
2018-11-28T03:20:27.196Z,40.27
2018-11-28T03:22:56.660Z,40.23
2018-11-28T03:25:26.132Z,41.97
2018-11-28T03:27:55.482Z,38.47
2018-11-28T03:30:25.087Z,39.37
2018-11-28T03:32:54.414Z,40.60
2018-11-28T03:35:23.793Z,39.80
2018-11-28T03:37:53.059Z,37.63
2018-11-28T03:40:22.528Z,40.40
2018-11-28T03:42:51.898Z,39.13
2018-11-28T03:45:21.178Z,40.67
2018-11-28T03:47:50.481Z,38.87
2018-11-28T03:50:19.815Z,43.57
2018-11-28T03:52:49.128Z,39.07
2018-11-28T03:55:18.474Z,41.37
2018-11-28T03:57:48.694Z,40.60
2018-11-28T04:00:20.771Z,39.80
2018-11-28T04:02:50.592Z,43.33
2018-11-28T04:05:19.996Z,42.87
2018-11-28T04:07:49.425Z,42.17
2018-11-28T04:10:18.795Z,41.73
2018-11-28T04:12:48.124Z,40.47
2018-11-28T04:15:20.135Z,39.73
2018-11-28T04:17:49.605Z,44.13
2018-11-28T04:20:20.628Z,39.77
2018-11-28T04:22:50.040Z,41.90
2018-11-28T04:25:21.998Z,42.07
2018-11-28T04:27:51.663Z,43.13
2018-11-28T04:30:24.805Z,43.40
2018-11-28T04:32:56.060Z,42.30
2018-11-28T04:35:25.464Z,41.33
2018-11-28T04:37:54.812Z,41.63
2018-11-28T04:40:24.209Z,42.10
2018-11-28T04:42:53.550Z,42.47
2018-11-28T04:45:25.511Z,40.33
2018-11-28T04:47:55.856Z,48.57
2018-11-28T04:50:25.249Z,44.67
2018-11-28T04:52:54.536Z,42.43
2018-11-28T04:55:23.859Z,45.40
2018-11-28T04:57:53.290Z,43.40
2018-11-28T05:00:26.575Z,42.63
2018-11-28T05:02:57.450Z,44.67
2018-11-28T05:05:26.923Z,39.73
2018-11-28T05:07:56.294Z,42.43
2018-11-28T05:10:30.190Z,43.70
2018-11-28T05:13:01.320Z,46.80
2018-11-28T05:15:33.113Z,44.73
2018-11-28T05:18:02.638Z,45.10
2018-11-28T05:20:33.578Z,44.43
2018-11-28T05:23:03.882Z,45.33
2018-11-28T05:25:34.651Z,44.53
2018-11-28T05:28:05.223Z,46.47
2018-11-28T05:30:35.772Z,46.07
2018-11-28T05:33:04.554Z,43.57
2018-11-28T05:35:38.888Z,45.33
2018-11-28T05:38:12.211Z,43.27
2018-11-28T05:40:43.048Z,47.23
2018-11-28T05:43:12.386Z,45.97
2018-11-28T05:45:41.753Z,44.70
2018-11-28T05:48:11.110Z,46.17
2018-11-28T05:50:40.411Z,45.77
2018-11-28T05:53:09.727Z,46.00
2018-11-28T05:55:39.148Z,43.50
2018-11-28T05:58:12.538Z,47.27
2018-11-28T06:00:42.522Z,45.30
2018-11-28T06:03:14.075Z,46.60
2018-11-28T06:05:43.932Z,48.47
2018-11-28T06:08:13.293Z,48.60
2018-11-28T06:10:42.661Z,47.53
2018-11-28T06:13:12.153Z,45.83
2018-11-28T06:15:41.553Z,42.37
2018-11-28T06:18:11.027Z,48.13
2018-11-28T06:20:40.422Z,47.00
2018-11-28T06:23:09.750Z,49.57
2018-11-28T06:25:39.050Z,46.77
2018-11-28T06:28:08.371Z,42.20
2018-11-28T06:30:37.803Z,46.70
2018-11-28T06:33:07.376Z,44.03
2018-11-28T06:35:36.687Z,44.63
2018-11-28T06:38:06.036Z,43.70
2018-11-28T06:40:35.475Z,42.97
2018-11-28T06:43:05.224Z,44.40
2018-11-28T06:45:34.542Z,48.33
2018-11-28T06:48:03.848Z,43.60
2018-11-28T06:50:34.849Z,46.07
2018-11-28T06:53:04.237Z,45.87
2018-11-28T06:55:33.531Z,43.97
2018-11-28T06:58:02.822Z,45.00
2018-11-28T07:00:32.093Z,42.77
2018-11-28T07:03:01.380Z,43.17
2018-11-28T07:05:30.732Z,44.33
2018-11-28T07:08:00.138Z,48.83
2018-11-28T07:10:29.489Z,45.30
2018-11-28T07:12:58.833Z,43.40
2018-11-28T07:15:28.248Z,46.10
2018-11-28T07:18:13.315Z,43.30
2018-11-28T07:20:42.632Z,47.00
2018-11-28T07:23:12.235Z,47.73
2018-11-28T07:25:41.481Z,46.00
2018-11-28T07:28:10.852Z,44.43
2018-11-28T07:30:40.153Z,43.90
2018-11-28T07:33:10.431Z,47.83
2018-11-28T07:35:40.934Z,47.63
2018-11-28T07:38:10.353Z,47.63
2018-11-28T07:40:40.552Z,45.90
2018-11-28T07:43:14.316Z,44.67
2018-11-28T07:45:49.019Z,45.37
2018-11-28T07:48:18.365Z,43.20
2018-11-28T07:50:47.729Z,43.57
2018-11-28T07:53:17.043Z,38.43
2018-11-28T07:55:46.468Z,40.40
2018-11-28T07:58:15.784Z,41.63
2018-11-28T08:00:45.139Z,38.07
2018-11-28T08:03:15.581Z,41.47
2018-11-28T08:05:44.968Z,39.90
2018-11-28T08:08:14.351Z,39.30
2018-11-28T08:10:43.668Z,40.30
2018-11-28T08:13:12.991Z,38.57
2018-11-28T08:15:44.309Z,39.40
2018-11-28T08:18:13.624Z,43.37
2018-11-28T08:20:43.039Z,38.43
2018-11-28T08:23:12.394Z,36.60
2018-11-28T08:25:41.887Z,39.10
2018-11-28T08:28:11.215Z,43.33
2018-11-28T08:30:40.501Z,41.07
2018-11-28T08:33:09.861Z,40.67
2018-11-28T08:35:39.167Z,41.57
2018-11-28T08:38:08.549Z,42.23
2018-11-28T08:40:38.135Z,42.60
2018-11-28T08:43:07.620Z,40.97
2018-11-28T08:45:37.130Z,38.93
2018-11-28T08:48:06.761Z,39.43
2018-11-28T08:50:38.175Z,38.30
2018-11-28T08:53:08.048Z,39.80
2018-11-28T08:55:37.390Z,38.00
2018-11-28T08:58:06.678Z,38.53
2018-11-28T09:00:36.427Z,37.47
2018-11-28T09:03:06.218Z,41.17
2018-11-28T09:05:37.568Z,38.57
2018-11-28T09:08:06.926Z,39.00
2018-11-28T09:10:36.301Z,38.37
2018-11-28T09:13:06.081Z,36.97
2018-11-28T09:15:35.342Z,37.83
2018-11-28T09:18:04.847Z,42.03
2018-11-28T09:20:34.285Z,40.20
2018-11-28T09:23:03.611Z,40.50
2018-11-28T09:25:32.963Z,39.93
2018-11-28T09:28:02.348Z,39.00
2018-11-28T09:30:31.660Z,40.57
2018-11-28T09:33:00.997Z,38.23
2018-11-28T09:35:30.322Z,41.37
2018-11-28T09:37:59.609Z,39.03
2018-11-28T09:40:30.081Z,40.47
2018-11-28T09:43:00.254Z,40.97
2018-11-28T09:45:29.560Z,36.73
2018-11-28T09:47:58.912Z,41.53
2018-11-28T09:50:28.300Z,39.87
2018-11-28T09:52:57.760Z,36.53
2018-11-28T09:55:28.917Z,37.83
2018-11-28T09:57:58.997Z,39.53
2018-11-28T10:00:29.437Z,36.83
2018-11-28T10:03:00.298Z,38.10
2018-11-28T10:05:31.680Z,37.70
2018-11-28T10:08:01.047Z,37.40
2018-11-28T10:10:42.163Z,37.47
2018-11-28T10:13:11.568Z,36.73
2018-11-28T10:15:40.872Z,36.10
2018-11-28T10:18:10.230Z,35.20
2018-11-28T10:20:39.576Z,34.07
2018-11-28T10:23:08.914Z,34.57
2018-11-28T10:25:38.187Z,32.00
2018-11-28T10:28:08.938Z,31.23
2018-11-28T10:30:39.461Z,30.47
2018-11-28T10:33:11.380Z,35.30
2018-11-28T10:35:41.663Z,30.87
2018-11-28T10:38:11.092Z,30.73
2018-11-28T10:40:40.490Z,31.37
2018-11-28T10:43:10.775Z,27.87
2018-11-28T10:45:40.106Z,29.73
2018-11-28T10:48:12.102Z,28.83
2018-11-28T10:50:41.446Z,27.50
2018-11-28T10:53:10.775Z,27.87
2018-11-28T10:55:40.063Z,27.93
2018-11-28T10:58:09.682Z,28.73
2018-11-28T11:00:44.205Z,26.23
2018-11-28T11:03:18.700Z,29.43
2018-11-28T11:05:54.058Z,26.50
2018-11-28T11:08:25.919Z,28.70
2018-11-28T11:11:00.500Z,26.90
2018-11-28T11:13:35.849Z,28.37
2018-11-28T11:16:05.393Z,29.80
2018-11-28T11:18:34.785Z,27.57
2018-11-28T11:21:04.128Z,26.00
2018-11-28T11:23:33.508Z,28.67
2018-11-28T11:26:02.836Z,25.17
2018-11-28T11:28:32.316Z,29.70
2018-11-28T11:31:01.577Z,27.43
2018-11-28T11:33:30.898Z,27.30
2018-11-28T11:36:00.240Z,26.47
2018-11-28T11:38:29.656Z,26.40
2018-11-28T11:40:59.123Z,26.07
2018-11-28T11:43:28.417Z,28.73
2018-11-28T11:45:57.789Z,24.70
2018-11-28T11:48:27.152Z,26.50
2018-11-28T11:50:56.673Z,25.70
2018-11-28T11:53:26.117Z,25.70
2018-11-28T11:55:55.466Z,28.93
2018-11-28T11:58:24.748Z,27.57
2018-11-28T12:00:54.112Z,25.27
2018-11-28T12:03:23.498Z,25.57
2018-11-28T12:05:57.213Z,24.90
2018-11-28T12:08:30.633Z,28.37
2018-11-28T12:10:59.958Z,26.63
2018-11-28T12:13:29.333Z,28.17
2018-11-28T12:15:58.654Z,23.47
2018-11-28T12:18:27.987Z,25.20
2018-11-28T12:21:00.260Z,27.17
2018-11-28T12:23:29.590Z,27.53
2018-11-28T12:25:58.957Z,24.87
2018-11-28T12:28:28.273Z,26.57
2018-11-28T12:30:57.791Z,26.80
2018-11-28T12:33:27.191Z,24.73
2018-11-28T12:35:56.627Z,25.30
2018-11-28T12:38:27.282Z,24.50
2018-11-28T12:40:56.598Z,26.63
2018-11-28T12:43:25.949Z,25.43
2018-11-28T12:45:55.391Z,24.70
2018-11-28T12:48:24.746Z,26.03
2018-11-28T12:50:54.142Z,24.47
2018-11-28T12:53:23.511Z,25.20
2018-11-28T12:55:52.870Z,25.77
2018-11-28T12:58:22.647Z,24.90
2018-11-28T13:00:52.020Z,28.13
2018-11-28T13:03:21.406Z,27.83
2018-11-28T13:05:50.759Z,25.07
2018-11-28T13:08:20.074Z,25.47
2018-11-28T13:10:49.393Z,27.10
2018-11-28T13:13:18.667Z,27.83
2018-11-28T13:15:48.017Z,25.47
2018-11-28T13:18:17.328Z,25.73
2018-11-28T13:20:46.669Z,26.00
2018-11-28T13:23:16.048Z,26.93
2018-11-28T13:25:45.457Z,26.63
2018-11-28T13:28:14.841Z,27.70
2018-11-28T13:30:44.228Z,24.07
2018-11-28T13:33:13.593Z,25.90
2018-11-28T13:35:42.930Z,26.40
2018-11-28T13:38:13.408Z,25.70
2018-11-28T13:40:43.459Z,27.70
2018-11-28T13:43:12.889Z,26.33
2018-11-28T13:45:45.708Z,25.23
2018-11-28T13:48:16.208Z,27.50
2018-11-28T13:50:45.572Z,27.17
2018-11-28T13:53:18.896Z,24.10
2018-11-28T13:56:57.472Z,24.73
2018-11-28T13:58:24.725Z,25.17
2018-11-28T14:00:54.045Z,23.43
2018-11-28T14:03:23.351Z,26.53
2018-11-28T14:05:52.659Z,24.43
2018-11-28T14:08:21.993Z,25.80
2018-11-28T14:10:51.604Z,25.30
2018-11-28T14:13:22.052Z,24.33
2018-11-28T14:15:55.263Z,23.00
2018-11-28T14:18:24.567Z,22.93
2018-11-28T14:20:53.989Z,24.90
2018-11-28T14:23:23.327Z,25.37
2018-11-28T14:25:53.770Z,23.30
2018-11-28T14:28:23.195Z,23.17
2018-11-28T14:30:52.599Z,22.23
2018-11-28T14:33:22.049Z,22.37
2018-11-28T14:35:51.377Z,24.40
2018-11-28T14:38:20.719Z,24.13
2018-11-28T14:40:50.177Z,24.03
2018-11-28T14:43:19.497Z,24.63
2018-11-28T14:45:48.863Z,23.83
2018-11-28T14:48:18.224Z,24.90
2018-11-28T14:50:47.635Z,25.93
2018-11-28T14:53:17.000Z,24.17
2018-11-28T14:55:46.565Z,23.50
2018-11-28T14:58:15.887Z,20.07
2018-11-28T15:00:45.198Z,23.33
2018-11-28T15:03:17.731Z,24.63
2018-11-28T15:06:00.828Z,25.70
2018-11-28T15:08:33.339Z,23.57
2018-11-28T15:11:10.240Z,22.93
2018-11-28T15:13:48.538Z,26.03
2018-11-28T15:16:17.849Z,23.00
2018-11-28T15:18:47.517Z,26.20
2018-11-28T15:21:16.838Z,24.90
2018-11-28T15:23:46.480Z,26.07
2018-11-28T15:26:15.861Z,25.13
2018-11-28T15:28:45.276Z,24.00
2018-11-28T15:31:14.893Z,25.17
2018-11-28T15:33:44.395Z,25.30
2018-11-28T15:36:13.784Z,23.63
2018-11-28T15:38:44.204Z,27.17
2018-11-28T15:41:14.566Z,24.93
2018-11-28T15:43:43.948Z,25.00
2018-11-28T15:46:15.013Z,24.97
2018-11-28T15:48:42.828Z,25.47
2018-11-28T15:51:14.236Z,31.03
2018-11-28T15:53:43.777Z,23.93
2018-11-28T15:56:13.209Z,28.33
2018-11-28T15:58:42.653Z,25.40
2018-11-28T16:01:12.065Z,25.00
2018-11-28T16:03:41.767Z,27.17
2018-11-28T16:06:13.325Z,25.40
2018-11-28T16:08:42.654Z,23.57
2018-11-28T16:11:16.114Z,23.53
2018-11-28T16:13:45.683Z,25.77
2018-11-28T16:16:15.097Z,23.60
2018-11-28T16:18:44.560Z,23.77
2018-11-28T16:21:13.979Z,25.77
2018-11-28T16:23:43.367Z,23.33
2018-11-28T16:26:12.748Z,22.70
2018-11-28T16:28:42.405Z,23.53
2018-11-28T16:31:12.000Z,24.07
2018-11-28T16:33:42.507Z,26.80
2018-11-28T16:36:12.000Z,24.80
2018-11-28T16:38:41.570Z,24.77
2018-11-28T16:41:11.985Z,25.57
2018-11-28T16:43:41.643Z,25.43
2018-11-28T16:46:11.013Z,23.40
2018-11-28T16:48:40.435Z,22.63
2018-11-28T16:51:09.822Z,23.97
2018-11-28T16:53:39.328Z,23.50
2018-11-28T16:56:08.701Z,24.27
2018-11-28T16:58:38.178Z,24.43
2018-11-28T17:01:07.849Z,24.63
2018-11-28T17:03:38.369Z,23.10
2018-11-28T17:06:08.031Z,22.50
2018-11-28T17:08:37.522Z,27.17
2018-11-28T17:11:08.186Z,23.13
2018-11-28T17:13:37.585Z,24.83
2018-11-28T17:16:06.989Z,25.43
2018-11-28T17:18:36.705Z,27.10
2018-11-28T17:21:06.204Z,25.50
2018-11-28T17:23:35.824Z,23.57
2018-11-28T17:26:05.644Z,24.87
2018-11-28T17:28:35.085Z,24.47
2018-11-28T17:31:04.491Z,25.70
2018-11-28T17:33:33.955Z,27.30
2018-11-28T17:36:03.285Z,25.40
2018-11-28T17:38:33.125Z,24.73
2018-11-28T17:41:02.872Z,27.20
2018-11-28T17:43:33.558Z,25.80
2018-11-28T17:46:03.236Z,30.10
2018-11-28T17:48:32.720Z,24.23
2018-11-28T17:51:02.714Z,25.63
2018-11-28T17:53:32.484Z,23.80
2018-11-28T17:56:01.869Z,28.17
2018-11-28T17:58:31.499Z,26.37
2018-11-28T18:01:00.920Z,24.73
2018-11-28T18:03:32.719Z,25.90
2018-11-28T18:06:02.323Z,27.23
2018-11-28T18:08:31.698Z,26.50
2018-11-28T18:11:12.459Z,27.20
2018-11-28T18:13:43.467Z,24.10
2018-11-28T18:16:13.034Z,26.07
2018-11-28T18:18:42.393Z,24.67
2018-11-28T18:21:12.973Z,24.07
2018-11-28T18:23:42.532Z,24.60
2018-11-28T18:26:14.289Z,25.70
2018-11-28T18:28:44.057Z,26.73
2018-11-28T18:31:13.435Z,24.37
2018-11-28T18:33:42.975Z,26.13
2018-11-28T18:36:12.374Z,25.57
2018-11-28T18:38:41.747Z,26.73
2018-11-28T18:41:11.159Z,24.77
2018-11-28T18:43:40.566Z,28.77
2018-11-28T18:46:10.028Z,25.50
2018-11-28T18:48:39.330Z,26.67
2018-11-28T18:51:08.782Z,24.00
2018-11-28T18:53:38.425Z,25.63
2018-11-28T18:56:09.399Z,26.60
2018-11-28T18:58:39.011Z,28.20
2018-11-28T19:01:08.317Z,30.43
2018-11-28T19:03:37.613Z,27.73
2018-11-28T19:06:07.028Z,31.53
2018-11-28T19:08:36.400Z,27.67
2018-11-28T19:11:06.498Z,27.90
2018-11-28T19:13:36.117Z,27.67
2018-11-28T19:16:05.822Z,26.47
2018-11-28T19:18:35.340Z,27.43
2018-11-28T19:21:06.829Z,28.23
2018-11-28T19:23:36.397Z,28.57
2018-11-28T19:26:06.225Z,28.40
2018-11-28T19:28:36.686Z,26.87
2018-11-28T19:31:06.386Z,27.43
2018-11-28T19:33:36.070Z,27.83
2018-11-28T19:36:05.619Z,29.00
2018-11-28T19:38:35.016Z,28.47
2018-11-28T19:41:07.432Z,30.33
2018-11-28T19:43:36.798Z,28.17
2018-11-28T19:46:06.808Z,26.77
2018-11-28T19:48:36.203Z,30.47
2018-11-28T19:51:05.937Z,28.73
2018-11-28T19:53:35.572Z,28.57
2018-11-28T19:56:05.115Z,29.37
2018-11-28T19:58:34.497Z,28.77
2018-11-28T20:01:03.851Z,27.43
2018-11-28T20:03:33.198Z,27.43
2018-11-28T20:06:02.501Z,26.63
2018-11-28T20:08:31.899Z,29.17
2018-11-28T20:11:01.296Z,27.03
2018-11-28T20:13:30.596Z,28.47
2018-11-28T20:15:59.903Z,28.07
2018-11-28T20:18:30.324Z,26.10
2018-11-28T20:20:59.768Z,27.27
2018-11-28T20:23:29.117Z,26.30
2018-11-28T20:26:00.728Z,27.13
2018-11-28T20:28:30.060Z,27.23
2018-11-28T20:31:00.292Z,27.70
2018-11-28T20:33:30.841Z,28.13
2018-11-28T20:36:00.206Z,26.23
2018-11-28T20:38:32.325Z,28.03
2018-11-28T20:41:01.686Z,26.37
2018-11-28T20:43:31.103Z,24.87
2018-11-28T20:46:00.526Z,24.27
2018-11-28T20:48:29.838Z,25.67
2018-11-28T20:50:59.139Z,26.03
2018-11-28T20:53:28.399Z,25.70
2018-11-28T20:55:57.757Z,28.80
2018-11-28T20:58:29.254Z,29.70
2018-11-28T21:00:58.665Z,28.17
2018-11-28T21:03:28.003Z,32.40
2018-11-28T21:05:57.652Z,27.73
2018-11-28T21:08:27.055Z,27.33
2018-11-28T21:10:56.460Z,27.93
2018-11-28T21:13:25.747Z,28.27
2018-11-28T21:16:04.080Z,29.17
2018-11-28T21:18:33.409Z,28.47
2018-11-28T21:21:02.980Z,28.93
2018-11-28T21:23:32.489Z,34.40
2018-11-28T21:26:01.917Z,27.43
2018-11-28T21:28:33.312Z,26.90
2018-11-28T21:31:02.679Z,29.23
2018-11-28T21:33:34.419Z,29.87
2018-11-28T21:36:07.798Z,28.50
2018-11-28T21:38:39.539Z,28.43
2018-11-28T21:41:14.113Z,29.10
2018-11-28T21:43:44.361Z,31.30
2018-11-28T21:46:16.317Z,29.23
2018-11-28T21:48:47.087Z,27.27
2018-11-28T21:51:16.918Z,25.70
2018-11-28T21:53:49.002Z,29.60
2018-11-28T21:56:19.464Z,26.77
2018-11-28T21:58:50.518Z,26.80
2018-11-28T22:01:21.510Z,26.13
2018-11-28T22:03:51.171Z,25.60
2018-11-28T22:06:20.599Z,29.23
2018-11-28T22:08:50.451Z,27.20
2018-11-28T22:11:19.945Z,23.83
2018-11-28T22:13:52.046Z,27.23
2018-11-28T22:16:28.165Z,29.10
2018-11-28T22:19:05.481Z,26.70
2018-11-28T22:21:40.534Z,26.07
2018-11-28T22:27:19.351Z,27.00
2018-11-28T22:29:49.670Z,27.40
2018-11-28T22:32:27.155Z,25.97
2018-11-28T22:35:08.184Z,25.20
2018-11-28T22:38:05.133Z,25.73
2018-11-28T22:40:50.214Z,25.43
2018-11-28T22:43:30.381Z,27.73
2018-11-28T22:46:01.103Z,25.40
2018-11-28T22:48:39.322Z,24.07
2018-11-28T22:51:11.077Z,23.03
2018-11-28T22:53:46.587Z,25.43
2018-11-28T22:56:17.764Z,22.73
2018-11-28T22:58:47.829Z,22.97
2018-11-28T23:01:31.646Z,22.87
2018-11-28T23:04:02.299Z,24.60
2018-11-28T23:06:33.201Z,21.37
2018-11-28T23:12:04.628Z,20.73
2018-11-28T23:14:36.199Z,20.97
2018-11-28T23:17:06.698Z,21.83
2018-11-28T23:19:43.208Z,19.53
2018-11-28T23:22:14.700Z,20.23
2018-11-28T23:24:50.308Z,21.03
2018-11-28T23:27:24.951Z,19.63
2018-11-28T23:30:00.398Z,19.40
2018-11-28T23:32:30.953Z,20.90
2018-11-28T23:35:06.560Z,18.50
2018-11-28T23:37:42.198Z,18.70
2018-11-28T23:40:30.802Z,20.03
2018-11-28T23:43:07.714Z,19.23
2018-11-28T23:45:41.975Z,18.87
2018-11-28T23:48:11.439Z,17.80
2018-11-28T23:50:40.831Z,16.37
2018-11-28T23:53:12.204Z,17.43
2018-11-28T23:55:41.601Z,18.57
2018-11-28T23:58:13.724Z,17.73
